createdAt,value
2018-05-10T00:02:09.383Z,70.80
2018-05-10T00:04:36.404Z,71.00
2018-05-10T00:07:03.492Z,70.40
2018-05-10T00:09:30.524Z,71.30
2018-05-10T00:11:57.537Z,71.30
2018-05-10T00:14:25.303Z,70.70
2018-05-10T00:16:53.058Z,70.30
2018-05-10T00:19:20.820Z,70.00
2018-05-10T00:21:48.588Z,70.80
2018-05-10T00:24:15.630Z,70.00
2018-05-10T00:26:42.620Z,70.20
2018-05-10T00:29:09.621Z,69.80
2018-05-10T00:31:37.370Z,69.10
2018-05-10T00:34:04.405Z,69.00
2018-05-10T00:36:31.425Z,69.10
2018-05-10T00:38:58.451Z,69.20
2018-05-10T00:41:25.495Z,69.20
2018-05-10T00:43:52.493Z,69.60
2018-05-10T00:46:19.555Z,70.00
2018-05-10T00:48:46.555Z,70.20
2018-05-10T00:51:13.565Z,70.10
2018-05-10T00:53:41.335Z,69.40
2018-05-10T00:56:08.369Z,69.30
2018-05-10T00:58:35.409Z,70.40
2018-05-10T01:01:02.418Z,71.10
2018-05-10T01:03:29.409Z,71.10
2018-05-10T01:05:56.448Z,70.60
2018-05-10T01:08:23.428Z,70.70
2018-05-10T01:10:50.647Z,70.40
2018-05-10T01:13:17.703Z,69.90
2018-05-10T01:15:44.724Z,70.80
2018-05-10T01:18:11.723Z,70.50
2018-05-10T01:20:39.117Z,70.70
2018-05-10T01:23:06.144Z,70.20
2018-05-10T01:25:33.164Z,69.70
2018-05-10T01:28:00.906Z,69.20
2018-05-10T01:30:27.932Z,69.20
2018-05-10T01:32:54.928Z,69.00
2018-05-10T01:35:40.519Z,69.00
2018-05-10T01:38:08.236Z,68.50
2018-05-10T01:40:35.244Z,68.50
2018-05-10T01:43:02.281Z,68.90
2018-05-10T01:45:29.293Z,69.20
2018-05-10T01:47:57.069Z,68.60
2018-05-10T01:50:24.092Z,68.60
2018-05-10T01:52:51.072Z,68.40
2018-05-10T01:55:18.821Z,68.50
2018-05-10T01:57:45.823Z,68.50
2018-05-10T02:00:12.873Z,68.20
2018-05-10T02:02:39.892Z,66.10
2018-05-10T02:05:07.233Z,66.80
2018-05-10T02:07:34.324Z,66.20
2018-05-10T02:10:01.354Z,66.20
2018-05-10T02:12:28.396Z,66.20
2018-05-10T02:14:55.428Z,66.20
2018-05-10T02:17:22.436Z,67.00
2018-05-10T02:19:49.410Z,66.80
2018-05-10T02:22:17.183Z,67.40
2018-05-10T02:24:44.915Z,68.20
2018-05-10T02:27:11.897Z,68.20
2018-05-10T02:29:39.725Z,67.20
2018-05-10T02:32:06.661Z,67.10
2018-05-10T02:34:34.681Z,67.20
2018-05-10T02:37:01.784Z,66.80
2018-05-10T02:39:28.805Z,65.20
2018-05-10T02:41:56.069Z,64.80
2018-05-10T02:44:23.172Z,65.60
2018-05-10T02:46:50.453Z,66.30
2018-05-10T02:49:17.589Z,66.90
2018-05-10T02:51:44.584Z,67.80
2018-05-10T02:54:11.584Z,68.40
2018-05-10T02:56:38.594Z,67.90
2018-05-10T02:59:06.564Z,66.90
2018-05-10T03:01:33.654Z,66.90
2018-05-10T03:04:00.673Z,67.90
2018-05-10T03:06:27.763Z,67.50
2018-05-10T03:08:54.768Z,66.80
2018-05-10T03:11:21.797Z,66.30
2018-05-10T03:13:49.562Z,66.30
2018-05-10T03:16:17.332Z,66.40
2018-05-10T03:18:45.152Z,66.80
2018-05-10T03:21:12.169Z,66.60
2018-05-10T03:23:40.056Z,66.30
2018-05-10T03:26:07.252Z,66.30
2018-05-10T03:28:34.313Z,66.30
2018-05-10T03:31:01.305Z,66.30
2018-05-10T03:33:29.067Z,67.20
2018-05-10T03:35:56.092Z,67.00
2018-05-10T03:38:23.098Z,67.60
2018-05-10T03:40:51.372Z,68.40
2018-05-10T03:43:18.457Z,68.30
2018-05-10T03:45:45.463Z,69.00
2018-05-10T03:48:12.458Z,69.30
2018-05-10T03:50:39.512Z,69.10
2018-05-10T03:53:06.708Z,69.50
2018-05-10T03:55:33.792Z,69.40
2018-05-10T03:58:00.953Z,69.80
2018-05-10T04:00:29.009Z,70.10
2018-05-10T04:06:28.477Z,69.80
2018-05-10T04:09:14.022Z,70.40
2018-05-10T04:11:41.067Z,70.50
2018-05-10T04:14:08.976Z,71.10
2018-05-10T04:16:36.056Z,71.10
2018-05-10T04:19:03.073Z,71.60
2018-05-10T04:21:30.100Z,71.60
2018-05-10T04:23:57.179Z,70.90
2018-05-10T04:26:24.139Z,71.60
2018-05-10T04:28:51.940Z,71.80
2018-05-10T04:31:19.076Z,71.70
2018-05-10T04:33:46.071Z,71.20
2018-05-10T04:36:13.112Z,71.70
2018-05-10T04:38:40.153Z,71.80
2018-05-10T04:41:07.157Z,71.20
2018-05-10T04:43:34.968Z,71.10
2018-05-10T04:46:02.005Z,71.90
2018-05-10T04:48:29.407Z,70.70
2018-05-10T04:50:56.573Z,70.00
2018-05-10T04:53:23.589Z,69.00
2018-05-10T04:55:50.592Z,68.00
2018-05-10T04:58:18.096Z,68.80
2018-05-10T05:00:46.096Z,68.90
2018-05-10T05:03:13.177Z,68.90
2018-05-10T05:05:40.190Z,68.80
2018-05-10T05:08:07.785Z,68.70
2018-05-10T05:10:35.033Z,68.30
2018-05-10T05:13:02.008Z,67.80
2018-05-10T05:15:29.085Z,66.30
2018-05-10T05:17:57.017Z,66.90
2018-05-10T05:20:24.261Z,66.70
2018-05-10T05:22:52.073Z,68.30
2018-05-10T05:25:19.141Z,68.30
2018-05-10T05:27:46.521Z,68.50
2018-05-10T05:30:13.595Z,69.00
2018-05-10T05:32:41.091Z,69.10
2018-05-10T05:35:08.852Z,69.00
2018-05-10T05:37:35.911Z,68.90
2018-05-10T05:40:02.982Z,68.20
2018-05-10T05:42:30.020Z,67.90
2018-05-10T05:44:57.339Z,68.70
2018-05-10T05:47:24.650Z,67.10
2018-05-10T05:49:51.775Z,67.10
2018-05-10T05:52:18.800Z,67.20
2018-05-10T05:54:46.608Z,67.00
2018-05-10T05:57:13.684Z,67.00
2018-05-10T05:59:40.730Z,66.30
2018-05-10T06:02:07.819Z,67.40
2018-05-10T06:04:34.878Z,66.70
2018-05-10T06:07:01.941Z,66.70
2018-05-10T06:09:28.957Z,66.50
2018-05-10T06:11:57.023Z,67.20
2018-05-10T06:14:24.793Z,68.40
2018-05-10T06:16:51.823Z,68.30
2018-05-10T06:19:18.841Z,68.70
2018-05-10T06:21:45.878Z,68.80
2018-05-10T06:24:13.166Z,68.50
2018-05-10T06:26:40.276Z,70.10
2018-05-10T06:29:07.521Z,69.20
2018-05-10T06:31:34.597Z,68.30
2018-05-10T06:34:02.603Z,66.60
2018-05-10T06:36:30.725Z,66.10
2018-05-10T06:38:57.737Z,66.10
2018-05-10T06:41:24.780Z,64.60
2018-05-10T06:43:52.748Z,65.70
2018-05-10T06:46:19.837Z,65.70
2018-05-10T06:48:47.124Z,66.20
2018-05-10T06:51:14.169Z,65.40
2018-05-10T06:53:41.204Z,63.40
2018-05-10T06:56:08.260Z,62.30
2018-05-10T06:58:35.288Z,64.60
2018-05-10T07:01:02.332Z,65.10
2018-05-10T07:03:29.560Z,62.20
2018-05-10T07:05:56.585Z,62.70
2018-05-10T07:08:23.793Z,62.90
2018-05-10T07:10:50.972Z,61.40
2018-05-10T07:13:18.398Z,60.90
2018-05-10T07:15:45.478Z,60.40
2018-05-10T07:18:12.521Z,59.90
2018-05-10T07:20:39.522Z,59.20
2018-05-10T07:23:06.578Z,59.70
2018-05-10T07:25:33.749Z,60.10
2018-05-10T07:28:00.780Z,59.20
2018-05-10T07:30:27.806Z,59.60
2018-05-10T07:32:54.916Z,59.10
2018-05-10T07:35:22.880Z,59.80
2018-05-10T07:37:50.000Z,59.70
2018-05-10T07:40:16.984Z,59.00
2018-05-10T07:42:43.980Z,58.80
2018-05-10T07:45:11.052Z,59.70
2018-05-10T07:47:38.228Z,58.50
2018-05-10T07:50:05.331Z,57.40
2018-05-10T07:52:32.318Z,57.60
2018-05-10T07:54:59.640Z,57.80
2018-05-10T07:57:26.720Z,58.00
2018-05-10T07:59:54.479Z,58.80
2018-05-10T08:02:21.522Z,58.80
2018-05-10T08:04:48.553Z,56.70
2018-05-10T08:07:15.600Z,57.10
2018-05-10T08:09:43.325Z,57.00
2018-05-10T08:12:10.333Z,56.80
2018-05-10T08:14:38.322Z,57.10
2018-05-10T08:17:05.426Z,57.10
2018-05-10T08:19:32.589Z,56.40
2018-05-10T08:21:59.648Z,56.20
2018-05-10T08:24:27.399Z,55.70
2018-05-10T08:26:54.677Z,55.70
2018-05-10T08:29:22.004Z,55.10
2018-05-10T08:31:49.095Z,56.70
2018-05-10T08:34:16.409Z,54.80
2018-05-10T08:36:43.593Z,54.50
2018-05-10T08:39:10.661Z,54.10
2018-05-10T08:41:37.673Z,55.80
2018-05-10T08:44:05.468Z,54.80
2018-05-10T08:46:32.481Z,54.70
2018-05-10T08:49:00.228Z,53.40
2018-05-10T08:51:27.234Z,53.30
2018-05-10T08:53:54.457Z,53.50
2018-05-10T08:56:22.215Z,53.60
2018-05-10T08:58:49.368Z,53.50
2018-05-10T09:01:17.210Z,51.00
2018-05-10T09:03:44.449Z,51.00
2018-05-10T09:06:12.355Z,51.50
2018-05-10T09:08:39.344Z,51.30
2018-05-10T09:11:06.338Z,49.50
2018-05-10T09:13:34.111Z,49.50
2018-05-10T09:16:01.133Z,49.50
2018-05-10T09:18:28.276Z,54.50
2018-05-10T09:20:56.068Z,54.20
2018-05-10T09:23:23.817Z,53.00
2018-05-10T09:25:50.838Z,52.90
2018-05-10T09:28:18.253Z,52.50
2018-05-10T09:30:45.328Z,51.70
2018-05-10T09:33:12.339Z,52.30
2018-05-10T09:35:40.382Z,48.50
2018-05-10T09:38:08.268Z,47.50
2018-05-10T09:40:36.076Z,50.80
2018-05-10T09:43:03.289Z,50.80
2018-05-10T09:45:30.412Z,48.20
2018-05-10T09:47:57.412Z,46.80
2018-05-10T09:50:24.669Z,45.90
2018-05-10T09:52:51.720Z,47.40
2018-05-10T09:55:18.753Z,48.70
2018-05-10T09:57:45.735Z,47.80
2018-05-10T10:00:22.240Z,45.60
2018-05-10T10:02:49.979Z,46.30
2018-05-10T10:05:17.185Z,46.30
2018-05-10T10:07:44.552Z,45.90
2018-05-10T10:10:11.865Z,46.90
2018-05-10T10:12:38.973Z,48.10
2018-05-10T10:15:05.983Z,45.20
2018-05-10T10:17:33.010Z,45.00
2018-05-10T10:20:00.013Z,45.00
2018-05-10T10:22:27.268Z,45.90
2018-05-10T10:24:55.358Z,44.30
2018-05-10T10:27:22.632Z,44.20
2018-05-10T10:29:50.492Z,45.40
2018-05-10T10:32:17.565Z,45.30
2018-05-10T10:34:45.316Z,44.70
2018-05-10T10:37:13.348Z,45.50
2018-05-10T10:39:40.503Z,45.50
2018-05-10T10:42:07.752Z,43.60
2018-05-10T10:44:35.209Z,46.10
2018-05-10T10:49:36.216Z,43.20
2018-05-10T10:52:03.493Z,42.50
2018-05-10T10:54:30.576Z,43.90
2018-05-10T10:56:58.353Z,42.60
2018-05-10T10:59:25.606Z,42.70
2018-05-10T11:01:53.604Z,41.60
2018-05-10T11:04:20.548Z,41.60
2018-05-10T11:06:48.277Z,42.00
2018-05-10T11:09:15.367Z,42.00
2018-05-10T11:11:42.280Z,41.00
2018-05-10T11:14:10.078Z,43.20
2018-05-10T11:16:37.264Z,43.20
2018-05-10T11:19:04.345Z,40.50
2018-05-10T11:21:32.104Z,43.90
2018-05-10T11:23:59.903Z,42.70
2018-05-10T11:26:26.922Z,42.70
2018-05-10T11:28:53.924Z,41.70
2018-05-10T11:31:20.975Z,40.40
2018-05-10T11:33:48.025Z,40.80
2018-05-10T11:36:15.165Z,38.20
2018-05-10T11:38:42.061Z,40.70
2018-05-10T11:41:09.534Z,38.50
2018-05-10T11:43:36.589Z,37.70
2018-05-10T11:46:04.304Z,36.20
2018-05-10T11:48:31.334Z,36.20
2018-05-10T11:50:58.330Z,37.90
2018-05-10T11:53:25.362Z,37.10
2018-05-10T11:55:53.121Z,34.00
2018-05-10T11:58:21.179Z,34.40
2018-05-10T12:00:48.708Z,34.40
2018-05-10T12:03:15.747Z,35.60
2018-05-10T12:05:42.796Z,33.40
2018-05-10T12:08:09.773Z,34.00
2018-05-10T12:10:36.800Z,33.10
2018-05-10T12:13:03.813Z,34.70
2018-05-10T12:15:30.817Z,31.80
2018-05-10T12:17:57.836Z,32.40
2018-05-10T12:20:24.893Z,31.40
2018-05-10T12:22:51.865Z,30.90
2018-05-10T12:25:18.848Z,30.00
2018-05-10T12:27:45.853Z,33.90
2018-05-10T12:30:13.172Z,34.70
2018-05-10T12:32:40.405Z,36.00
2018-05-10T12:35:07.464Z,38.20
2018-05-10T12:37:34.461Z,38.10
2018-05-10T12:40:01.489Z,38.60
2018-05-10T12:42:28.772Z,39.00
2018-05-10T12:44:55.823Z,37.80
2018-05-10T12:47:22.820Z,35.50
2018-05-10T12:49:49.838Z,34.80
2018-05-10T12:52:17.561Z,33.20
2018-05-10T12:54:45.653Z,32.10
2018-05-10T12:57:12.783Z,31.80
2018-05-10T12:59:40.015Z,33.60
2018-05-10T13:02:07.173Z,31.70
2018-05-10T13:04:34.273Z,29.50
2018-05-10T13:07:01.329Z,29.50
2018-05-10T13:09:29.052Z,30.60
2018-05-10T13:11:57.073Z,29.60
2018-05-10T13:14:24.141Z,29.60
2018-05-10T13:16:51.189Z,29.60
2018-05-10T13:19:18.391Z,27.30
2018-05-10T13:21:45.559Z,27.40
2018-05-10T13:24:12.622Z,28.20
2018-05-10T13:26:39.642Z,27.90
2018-05-10T13:29:06.937Z,27.90
2018-05-10T13:31:34.872Z,29.10
2018-05-10T13:34:01.983Z,29.00
2018-05-10T13:36:29.281Z,27.30
2018-05-10T13:38:56.390Z,27.80
2018-05-10T13:41:23.596Z,28.60
2018-05-10T13:43:50.718Z,28.20
2018-05-10T13:46:17.781Z,28.60
2018-05-10T13:48:44.881Z,28.10
2018-05-10T13:51:11.977Z,28.30
2018-05-10T13:53:39.068Z,28.60
2018-05-10T13:56:06.873Z,28.10
2018-05-10T13:58:34.631Z,28.60
2018-05-10T14:01:01.691Z,28.60
2018-05-10T14:03:28.709Z,28.60
2018-05-10T14:05:56.785Z,30.40
2018-05-10T14:08:23.849Z,30.30
2018-05-10T14:10:51.325Z,30.30
2018-05-10T14:13:18.405Z,31.80
2018-05-10T14:15:45.445Z,30.50
2018-05-10T14:18:12.580Z,31.00
2018-05-10T14:20:39.765Z,31.40
2018-05-10T14:23:06.829Z,31.70
2018-05-10T14:25:34.430Z,31.80
2018-05-10T14:28:01.745Z,32.30
2018-05-10T14:30:28.784Z,33.20
2018-05-10T14:32:55.818Z,32.40
2018-05-10T14:35:23.839Z,32.40
2018-05-10T14:37:51.130Z,32.30
2018-05-10T14:40:18.149Z,32.30
2018-05-10T14:42:45.440Z,32.60
2018-05-10T14:45:12.524Z,35.90
2018-05-10T14:47:40.253Z,33.20
2018-05-10T14:50:07.846Z,33.10
2018-05-10T14:52:34.907Z,35.00
2018-05-10T14:55:03.328Z,36.10
2018-05-10T14:57:30.919Z,38.50
2018-05-10T14:59:57.901Z,37.60
2018-05-10T15:02:24.940Z,34.70
2018-05-10T15:04:52.168Z,35.40
2018-05-10T15:07:19.256Z,35.50
2018-05-10T15:09:46.303Z,35.80
2018-05-10T15:12:13.309Z,34.40
2018-05-10T15:14:41.088Z,37.20
2018-05-10T15:17:08.285Z,37.20
2018-05-10T15:19:35.386Z,38.60
2018-05-10T15:22:02.390Z,41.20
2018-05-10T15:24:29.424Z,39.00
2018-05-10T15:26:56.490Z,40.60
2018-05-10T15:29:23.826Z,39.20
2018-05-10T15:31:50.938Z,39.00
2018-05-10T15:34:18.669Z,37.00
2018-05-10T15:36:45.994Z,37.00
2018-05-10T15:39:13.158Z,36.60
2018-05-10T15:41:40.138Z,40.60
2018-05-10T15:44:07.208Z,34.30
2018-05-10T15:46:35.138Z,35.90
2018-05-10T15:49:02.434Z,35.90
2018-05-10T15:51:29.505Z,37.10
2018-05-10T15:53:56.549Z,38.40
2018-05-10T15:56:23.589Z,37.50
2018-05-10T15:58:51.014Z,37.70
2018-05-10T16:01:18.944Z,36.90
2018-05-10T16:03:45.980Z,36.90
2018-05-10T16:06:13.030Z,39.10
2018-05-10T16:08:40.053Z,37.30
2018-05-10T16:11:07.091Z,38.60
2018-05-10T16:13:34.112Z,36.70
2018-05-10T16:16:01.132Z,39.30
2018-05-10T16:18:29.105Z,40.10
2018-05-10T16:20:56.120Z,40.20
2018-05-10T16:23:23.170Z,39.00
2018-05-10T16:25:50.221Z,41.50
2018-05-10T16:28:17.254Z,41.80
2018-05-10T16:30:44.284Z,42.50
2018-05-10T16:33:11.797Z,43.30
2018-05-10T16:35:39.576Z,44.90
2018-05-10T16:38:06.993Z,45.50
2018-05-10T16:40:34.411Z,46.40
2018-05-10T16:43:01.640Z,46.50
2018-05-10T16:45:29.630Z,46.00
2018-05-10T16:47:56.759Z,46.50
2018-05-10T16:50:24.248Z,47.40
2018-05-10T16:52:51.517Z,47.50
2018-05-10T16:55:18.813Z,46.00
2018-05-10T16:57:45.901Z,48.50
2018-05-10T17:00:12.936Z,50.00
2018-05-10T17:02:40.211Z,49.90
2018-05-10T17:05:07.257Z,50.00
2018-05-10T17:07:34.276Z,49.80
2018-05-10T17:10:01.379Z,49.10
2018-05-10T17:12:28.389Z,49.00
2018-05-10T17:14:55.386Z,50.40
2018-05-10T17:17:22.404Z,50.30
2018-05-10T17:19:49.437Z,49.90
2018-05-10T17:22:16.439Z,49.50
2018-05-10T17:24:44.233Z,48.60
2018-05-10T17:27:11.566Z,48.60
2018-05-10T17:29:38.631Z,49.30
2018-05-10T17:32:06.048Z,50.10
2018-05-10T17:34:33.121Z,51.40
2018-05-10T17:37:00.864Z,51.90
2018-05-10T17:39:27.854Z,51.90
2018-05-10T17:41:54.849Z,51.70
2018-05-10T17:44:21.873Z,52.80
2018-05-10T17:46:48.889Z,53.10
2018-05-10T17:49:15.915Z,53.80
2018-05-10T17:51:43.185Z,53.80
2018-05-10T17:54:10.769Z,53.60
2018-05-10T17:56:38.143Z,54.20
2018-05-10T17:59:05.309Z,54.70
2018-05-10T18:01:33.382Z,54.70
2018-05-10T18:04:00.420Z,54.50
2018-05-10T18:06:27.456Z,54.80
2018-05-10T18:08:54.510Z,55.00
2018-05-10T18:11:21.583Z,54.60
2018-05-10T18:13:48.704Z,54.80
2018-05-10T18:16:15.719Z,55.10
2018-05-10T18:18:42.762Z,55.00
2018-05-10T18:21:09.789Z,55.70
2018-05-10T18:23:38.023Z,56.00
2018-05-10T18:26:05.098Z,56.00
2018-05-10T18:28:32.851Z,56.80
2018-05-10T18:30:59.877Z,56.80
2018-05-10T18:33:26.906Z,57.30
2018-05-10T18:35:54.208Z,57.40
2018-05-10T18:38:21.991Z,57.50
2018-05-10T18:40:49.024Z,57.50
2018-05-10T18:43:16.800Z,58.50
2018-05-10T18:45:44.628Z,57.70
2018-05-10T18:48:11.697Z,57.60
2018-05-10T18:50:38.688Z,57.70
2018-05-10T18:53:05.833Z,57.20
2018-05-10T18:55:32.919Z,57.10
2018-05-10T18:57:59.964Z,56.60
2018-05-10T19:00:27.048Z,56.50
2018-05-10T19:02:55.194Z,56.30
2018-05-10T19:05:22.331Z,56.30
2018-05-10T19:07:49.373Z,57.00
2018-05-10T19:10:16.367Z,56.60
2018-05-10T19:12:44.611Z,56.60
2018-05-10T19:15:11.676Z,56.50
2018-05-10T19:17:39.428Z,56.80
2018-05-10T19:20:06.849Z,56.70
2018-05-10T19:22:33.919Z,57.70
2018-05-10T19:25:01.152Z,57.10
2018-05-10T19:27:28.432Z,57.20
2018-05-10T19:29:55.521Z,57.10
2018-05-10T19:32:23.291Z,57.50
2018-05-10T19:34:50.607Z,57.50
2018-05-10T19:37:17.941Z,56.70
2018-05-10T19:39:45.021Z,56.90
2018-05-10T19:42:12.066Z,56.80
2018-05-10T19:44:40.102Z,57.90
2018-05-10T19:47:07.210Z,57.40
2018-05-10T19:49:34.227Z,57.50
2018-05-10T19:52:01.377Z,58.30
2018-05-10T19:54:28.632Z,56.90
2018-05-10T19:56:56.547Z,58.20
2018-05-10T19:59:23.515Z,58.20
2018-05-10T20:01:50.554Z,56.20
2018-05-10T20:04:17.568Z,56.00
2018-05-10T20:06:44.631Z,56.10
2018-05-10T20:09:11.706Z,56.10
2018-05-10T20:11:38.749Z,56.10
2018-05-10T20:14:05.782Z,56.60
2018-05-10T20:16:32.825Z,58.30
2018-05-10T20:18:59.853Z,58.10
2018-05-10T20:21:26.960Z,59.80
2018-05-10T20:23:54.258Z,59.90
2018-05-10T20:26:21.457Z,66.10
2018-05-10T20:28:49.627Z,70.80
2018-05-10T20:31:16.737Z,73.80
2018-05-10T20:33:44.496Z,77.50
2018-05-10T20:36:11.565Z,77.50
2018-05-10T20:38:39.812Z,76.40
2018-05-10T20:41:06.937Z,77.30
2018-05-10T20:43:34.305Z,77.70
2018-05-10T20:46:01.412Z,78.40
2018-05-10T20:48:28.484Z,78.30
2018-05-10T20:50:55.621Z,77.60
2018-05-10T20:53:22.642Z,78.20
2018-05-10T20:55:50.008Z,78.10
2018-05-10T20:58:17.537Z,78.90
2018-05-10T21:00:44.598Z,78.70
2018-05-10T21:03:12.621Z,79.30
2018-05-10T21:05:40.395Z,79.50
2018-05-10T21:08:07.408Z,79.50
2018-05-10T21:10:34.424Z,79.70
2018-05-10T21:13:02.195Z,81.80
2018-05-10T21:15:29.487Z,81.80
2018-05-10T21:17:56.526Z,81.70
2018-05-10T21:20:23.557Z,81.70
2018-05-10T21:22:50.589Z,82.60
2018-05-10T21:25:17.661Z,83.20
2018-05-10T21:27:45.416Z,82.90
2018-05-10T21:30:12.468Z,83.30
2018-05-10T21:32:39.476Z,83.50
2018-05-10T21:35:06.520Z,82.20
2018-05-10T21:37:34.269Z,82.90
2018-05-10T21:40:02.023Z,83.40
2018-05-10T21:42:29.045Z,83.40
2018-05-10T21:44:56.050Z,84.00
2018-05-10T21:47:23.137Z,84.10
2018-05-10T21:50:04.277Z,83.80
2018-05-10T21:52:31.356Z,83.80
2018-05-10T21:54:58.452Z,83.90
2018-05-10T21:57:25.472Z,84.10
2018-05-10T21:59:52.461Z,83.40
2018-05-10T22:02:19.541Z,83.70
2018-05-10T22:04:46.584Z,84.10
2018-05-10T22:07:13.727Z,82.80
2018-05-10T22:09:43.289Z,82.90
2018-05-10T22:12:16.035Z,82.50
2018-05-10T22:14:45.756Z,82.90
2018-05-10T22:17:16.299Z,83.00
2018-05-10T22:19:49.965Z,83.20
2018-05-10T22:22:24.145Z,83.40
2018-05-10T22:24:58.386Z,83.50
2018-05-10T22:27:32.053Z,83.60
2018-05-10T22:30:00.156Z,82.20
2018-05-10T22:32:27.115Z,82.20
2018-05-10T22:34:54.157Z,83.20
2018-05-10T22:37:21.217Z,82.00
2018-05-10T22:39:48.232Z,81.20
2018-05-10T22:42:15.969Z,82.90
2018-05-10T22:44:43.741Z,82.70
2018-05-10T22:47:11.539Z,83.00
2018-05-10T22:49:38.746Z,83.00
2018-05-10T22:52:06.506Z,82.90
2018-05-10T22:54:33.556Z,82.90
2018-05-10T22:57:01.321Z,82.40
2018-05-10T22:59:28.324Z,82.30
2018-05-10T23:01:55.400Z,82.40
2018-05-10T23:04:23.185Z,82.60
2018-05-10T23:06:50.194Z,82.30
2018-05-10T23:09:17.244Z,83.00
2018-05-10T23:11:44.284Z,79.70
2018-05-10T23:14:11.321Z,79.90
2018-05-10T23:16:38.361Z,79.80
2018-05-10T23:19:05.385Z,79.80
2018-05-10T23:21:33.134Z,81.30
2018-05-10T23:24:00.131Z,81.30
2018-05-10T23:26:27.156Z,82.20
2018-05-10T23:28:54.212Z,82.80
2018-05-10T23:31:21.221Z,82.80
2018-05-10T23:33:49.025Z,82.80
2018-05-10T23:36:16.036Z,82.70
2018-05-10T23:38:43.025Z,83.00
2018-05-10T23:41:10.029Z,83.30
2018-05-10T23:43:37.786Z,83.60
2018-05-10T23:46:05.584Z,83.70
2018-05-10T23:48:32.628Z,83.60
2018-05-10T23:50:59.619Z,83.80
2018-05-10T23:53:26.682Z,83.80
2018-05-10T23:55:54.452Z,84.30
2018-05-10T23:58:22.220Z,83.90
